createdAt,value
2023-09-08T00:00:46.403Z,89.22
2023-09-08T00:03:14.167Z,89.58
2023-09-08T00:05:41.881Z,89.94
2023-09-08T00:12:21.099Z,90.48
2023-09-08T00:14:50.111Z,90.44
2023-09-08T00:17:17.762Z,90.82
2023-09-08T00:19:45.930Z,90.66
2023-09-08T00:22:13.576Z,90.97
2023-09-08T00:24:41.278Z,91.04
2023-09-08T00:27:10.479Z,91.12
2023-09-08T00:29:38.199Z,91.84
2023-09-08T00:32:08.056Z,92.12
2023-09-08T00:34:35.763Z,92.33
2023-09-08T00:37:08.148Z,92.57
2023-09-08T00:39:37.016Z,92.35
2023-09-08T00:42:04.982Z,92.77
2023-09-08T00:44:32.686Z,93.13
2023-09-08T00:47:00.604Z,93.75
2023-09-08T00:49:29.925Z,93.85
2023-09-08T00:51:57.802Z,93.87
2023-09-08T00:54:25.593Z,93.88
2023-09-08T00:56:57.954Z,93.97
2023-09-08T00:59:26.737Z,94.17
2023-09-08T01:01:54.917Z,94.32
2023-09-08T01:04:23.268Z,94.72
2023-09-08T01:06:54.136Z,94.63
2023-09-08T01:09:22.446Z,94.68
2023-09-08T01:11:50.220Z,94.82
2023-09-08T01:14:20.150Z,95.34
2023-09-08T01:16:48.014Z,95.57
2023-09-08T01:19:18.645Z,95.42
2023-09-08T01:22:19.502Z,95.52
2023-09-08T01:25:06.572Z,95.85
2023-09-08T01:27:37.212Z,96.18
2023-09-08T01:30:07.802Z,96.19
2023-09-08T01:32:36.659Z,96.88
2023-09-08T01:35:05.236Z,96.79
2023-09-08T01:37:33.673Z,96.76
2023-09-08T01:40:02.725Z,96.30
2023-09-08T01:42:30.495Z,96.44
2023-09-08T01:44:58.143Z,96.33
2023-09-08T01:47:26.665Z,96.35
2023-09-08T01:49:54.343Z,96.49
2023-09-08T01:52:22.329Z,96.41
2023-09-08T01:54:50.004Z,96.29
2023-09-08T01:57:19.137Z,96.56
2023-09-08T01:59:47.190Z,96.85
2023-09-08T02:02:15.639Z,96.90
2023-09-08T02:04:43.445Z,96.53
2023-09-08T02:07:11.160Z,96.89
2023-09-08T02:09:39.799Z,96.97
2023-09-08T02:12:08.307Z,97.33
2023-09-08T02:14:38.859Z,97.33
2023-09-08T02:17:07.361Z,97.43
2023-09-08T02:19:35.068Z,97.49
2023-09-08T02:22:02.744Z,97.70
2023-09-08T02:24:31.382Z,97.90
2023-09-08T02:26:59.570Z,97.43
2023-09-08T02:29:27.309Z,98.00
2023-09-08T02:31:57.507Z,98.27
2023-09-08T02:34:25.317Z,98.35
2023-09-08T02:36:53.030Z,98.67
2023-09-08T02:39:27.950Z,98.93
2023-09-08T02:41:56.342Z,99.45
2023-09-08T02:44:24.074Z,99.83
2023-09-08T02:46:51.786Z,100.00
2023-09-08T02:49:20.845Z,100.00
2023-09-08T02:51:48.530Z,100.00
2023-09-08T02:54:16.194Z,100.00
2023-09-08T02:56:43.841Z,100.00
2023-09-08T02:59:12.010Z,100.00
2023-09-08T03:01:39.774Z,100.00
2023-09-08T03:04:07.624Z,100.00
2023-09-08T03:06:37.238Z,100.00
2023-09-08T03:09:05.018Z,100.00
2023-09-08T03:11:32.710Z,100.00
2023-09-08T03:14:00.523Z,100.00
2023-09-08T03:16:28.275Z,100.00
2023-09-08T03:18:56.014Z,100.00
2023-09-08T03:21:24.014Z,100.00
2023-09-08T03:23:53.107Z,100.00
2023-09-08T03:26:20.844Z,100.00
2023-09-08T03:28:48.474Z,100.00
2023-09-08T03:31:16.230Z,100.00
2023-09-08T03:33:44.268Z,100.00
2023-09-08T03:36:13.004Z,100.00
2023-09-08T03:38:42.007Z,100.00
2023-09-08T03:41:11.965Z,100.00
2023-09-08T03:43:39.744Z,100.00
2023-09-08T03:46:07.682Z,100.00
2023-09-08T03:48:35.467Z,100.00
2023-09-08T03:51:03.337Z,100.00
2023-09-08T03:53:31.431Z,100.00
2023-09-08T03:55:59.972Z,100.00
2023-09-08T03:58:29.335Z,100.00
2023-09-08T04:00:57.973Z,100.00
2023-09-08T04:03:26.013Z,100.00
2023-09-08T04:05:53.847Z,100.00
2023-09-08T04:08:21.518Z,100.00
2023-09-08T04:10:49.162Z,100.00
2023-09-08T04:13:16.811Z,100.00
2023-09-08T04:15:45.895Z,100.00
2023-09-08T04:18:14.015Z,100.00
2023-09-08T04:20:41.801Z,100.00
2023-09-08T04:23:09.573Z,100.00
2023-09-08T04:25:37.580Z,100.00
2023-09-08T04:28:06.658Z,100.00
2023-09-08T04:30:34.575Z,100.00
2023-09-08T04:33:03.793Z,100.00
2023-09-08T04:35:31.592Z,100.00
2023-09-08T04:38:00.105Z,100.00
2023-09-08T04:40:29.911Z,100.00
2023-09-08T04:42:57.631Z,100.00
2023-09-08T04:45:25.421Z,100.00
2023-09-08T04:47:53.363Z,100.00
2023-09-08T04:50:23.559Z,100.00
2023-09-08T04:52:52.075Z,100.00
2023-09-08T04:55:20.749Z,100.00
2023-09-08T04:57:49.087Z,100.00
2023-09-08T05:00:17.591Z,100.00
2023-09-08T05:02:46.088Z,100.00
2023-09-08T05:05:14.202Z,100.00
2023-09-08T05:07:44.202Z,100.00
2023-09-08T05:10:12.150Z,100.00
2023-09-08T05:12:40.612Z,100.00
2023-09-08T05:15:15.794Z,100.00
2023-09-08T05:17:46.619Z,100.00
2023-09-08T05:20:15.001Z,100.00
2023-09-08T05:22:44.393Z,100.00
2023-09-08T05:25:12.493Z,100.00
2023-09-08T05:27:40.563Z,100.00
2023-09-08T05:30:09.765Z,100.00
2023-09-08T05:32:38.719Z,100.00
2023-09-08T05:35:07.469Z,100.00
2023-09-08T05:37:35.387Z,100.00
2023-09-08T05:40:06.206Z,100.00
2023-09-08T05:42:33.898Z,100.00
2023-09-08T05:45:01.996Z,100.00
2023-09-08T05:47:29.748Z,100.00
2023-09-08T05:49:58.197Z,100.00
2023-09-08T05:52:27.646Z,100.00
2023-09-08T05:54:55.407Z,100.00
2023-09-08T05:57:24.464Z,100.00
2023-09-08T05:59:52.182Z,100.00
2023-09-08T06:02:20.058Z,100.00
2023-09-08T06:04:47.767Z,100.00
2023-09-08T06:07:15.502Z,100.00
2023-09-08T06:09:43.396Z,100.00
2023-09-08T06:12:11.241Z,100.00
2023-09-08T06:14:42.783Z,100.00
2023-09-08T06:17:11.945Z,100.00
2023-09-08T06:19:39.743Z,100.00
2023-09-08T06:22:08.104Z,100.00
2023-09-08T06:24:35.928Z,100.00
2023-09-08T06:27:03.902Z,100.00
2023-09-08T06:29:31.621Z,100.00
2023-09-08T06:32:00.776Z,100.00
2023-09-08T06:34:28.741Z,100.00
2023-09-08T06:36:56.603Z,100.00
2023-09-08T06:39:24.371Z,100.00
2023-09-08T06:41:52.114Z,100.00
2023-09-08T06:44:21.611Z,100.00
2023-09-08T06:46:49.477Z,100.00
2023-09-08T06:49:19.286Z,100.00
2023-09-08T06:51:48.681Z,100.00
2023-09-08T06:54:16.631Z,100.00
2023-09-08T06:56:45.852Z,100.00
2023-09-08T06:59:13.594Z,100.00
2023-09-08T07:01:41.470Z,100.00
2023-09-08T07:04:11.314Z,100.00
2023-09-08T07:06:42.925Z,100.00
2023-09-08T07:09:11.149Z,100.00
2023-09-08T07:11:38.990Z,100.00
2023-09-08T07:14:06.725Z,100.00
2023-09-08T07:16:34.517Z,100.00
2023-09-08T07:19:03.225Z,100.00
2023-09-08T07:21:31.531Z,100.00
2023-09-08T07:24:01.567Z,100.00
2023-09-08T07:26:30.162Z,100.00
2023-09-08T07:28:57.916Z,100.00
2023-09-08T07:31:25.861Z,100.00
2023-09-08T07:33:54.009Z,100.00
2023-09-08T07:36:21.738Z,100.00
2023-09-08T07:38:50.117Z,100.00
2023-09-08T07:41:19.178Z,100.00
2023-09-08T07:43:47.165Z,100.00
2023-09-08T07:46:18.821Z,100.00
2023-09-08T07:48:46.526Z,100.00
2023-09-08T07:51:14.175Z,100.00
2023-09-08T07:53:41.889Z,100.00
2023-09-08T07:56:09.595Z,100.00
2023-09-08T07:58:39.169Z,100.00
2023-09-08T08:01:06.991Z,100.00
2023-09-08T08:03:35.997Z,100.00
2023-09-08T08:06:04.250Z,100.00
2023-09-08T08:08:32.460Z,100.00
2023-09-08T08:11:00.780Z,100.00
2023-09-08T08:13:28.437Z,100.00
2023-09-08T08:15:57.430Z,100.00
2023-09-08T08:18:25.172Z,100.00
2023-09-08T08:20:52.984Z,99.48
2023-09-08T08:23:21.028Z,99.00
2023-09-08T08:25:48.921Z,98.21
2023-09-08T08:28:16.783Z,96.70
2023-09-08T08:30:46.237Z,95.68
2023-09-08T08:33:16.514Z,94.37
2023-09-08T08:35:50.731Z,93.70
2023-09-08T08:38:18.448Z,93.14
2023-09-08T08:40:46.272Z,92.67
2023-09-08T08:43:14.579Z,91.91
2023-09-08T08:45:44.584Z,89.85
2023-09-08T08:48:13.815Z,88.58
2023-09-08T08:50:45.385Z,88.28
2023-09-08T08:53:14.575Z,88.45
2023-09-08T08:55:43.301Z,88.35
2023-09-08T08:58:11.146Z,88.04
2023-09-08T09:00:40.183Z,87.00
2023-09-08T09:03:15.721Z,85.69
2023-09-08T09:05:48.833Z,84.49
2023-09-08T09:08:18.202Z,83.57
2023-09-08T09:10:45.876Z,82.36
2023-09-08T09:13:14.051Z,80.45
2023-09-08T09:15:41.890Z,80.04
2023-09-08T09:18:10.405Z,79.82
2023-09-08T09:20:38.509Z,79.51
2023-09-08T09:23:07.556Z,79.32
2023-09-08T09:25:37.387Z,77.54
2023-09-08T09:28:07.606Z,75.89
2023-09-08T09:30:52.325Z,73.96
2023-09-08T09:33:20.576Z,72.99
2023-09-08T09:35:50.746Z,72.57
2023-09-08T09:38:21.644Z,72.51
2023-09-08T09:40:50.384Z,72.09
2023-09-08T09:43:19.074Z,71.74
2023-09-08T09:45:47.151Z,70.47
2023-09-08T09:48:15.193Z,68.03
2023-09-08T09:50:44.344Z,67.53
2023-09-08T09:53:14.814Z,66.91
2023-09-08T09:55:45.456Z,67.30
2023-09-08T09:58:15.385Z,66.91
2023-09-08T10:00:46.535Z,66.13
2023-09-08T10:03:15.919Z,65.27
2023-09-08T10:05:43.705Z,63.74
2023-09-08T10:08:12.662Z,62.19
2023-09-08T10:10:42.876Z,63.13
2023-09-08T10:13:13.638Z,62.61
2023-09-08T10:15:43.326Z,62.32
2023-09-08T10:18:16.617Z,62.31
2023-09-08T10:20:46.428Z,62.71
2023-09-08T10:23:17.940Z,63.73
2023-09-08T10:25:54.181Z,64.55
2023-09-08T10:28:24.223Z,62.45
2023-09-08T10:30:52.910Z,59.61
2023-09-08T10:33:22.162Z,59.44
2023-09-08T10:35:50.040Z,58.58
2023-09-08T10:38:26.042Z,58.34
2023-09-08T10:40:54.679Z,57.53
2023-09-08T10:43:26.130Z,56.69
2023-09-08T10:45:53.915Z,56.33
2023-09-08T10:48:21.628Z,55.85
2023-09-08T10:50:49.449Z,54.85
2023-09-08T10:53:18.930Z,55.17
2023-09-08T10:56:15.768Z,52.78
2023-09-08T10:58:44.606Z,52.21
2023-09-08T11:01:15.682Z,52.38
2023-09-08T11:03:50.724Z,53.70
2023-09-08T11:06:19.981Z,53.15
2023-09-08T11:08:49.835Z,51.75
2023-09-08T11:11:19.346Z,50.93
2023-09-08T11:13:48.630Z,48.92
2023-09-08T11:16:17.097Z,47.28
2023-09-08T11:18:45.359Z,48.06
2023-09-08T11:21:13.195Z,48.71
2023-09-08T11:23:41.051Z,47.62
2023-09-08T11:26:10.059Z,46.97
2023-09-08T11:28:38.742Z,45.09
2023-09-08T11:31:08.370Z,46.57
2023-09-08T11:33:40.469Z,47.10
2023-09-08T11:36:15.430Z,48.31
2023-09-08T11:38:45.045Z,46.93
2023-09-08T11:41:12.835Z,47.16
2023-09-08T11:43:40.638Z,45.54
2023-09-08T11:46:11.965Z,44.89
2023-09-08T11:48:40.724Z,44.14
2023-09-08T11:51:09.102Z,45.04
2023-09-08T11:53:39.083Z,45.63
2023-09-08T11:56:07.440Z,46.33
2023-09-08T11:58:35.958Z,44.56
2023-09-08T12:01:05.056Z,41.61
2023-09-08T12:03:34.233Z,41.49
2023-09-08T12:06:03.552Z,41.47
2023-09-08T12:08:31.549Z,40.90
2023-09-08T12:10:59.546Z,41.50
2023-09-08T12:13:27.889Z,42.01
2023-09-08T12:15:55.571Z,40.44
2023-09-08T12:18:41.446Z,40.72
2023-09-08T12:21:11.240Z,41.11
2023-09-08T12:23:50.431Z,41.37
2023-09-08T12:26:18.974Z,41.93
2023-09-08T12:28:49.685Z,39.50
2023-09-08T12:31:19.143Z,40.22
2023-09-08T12:33:48.506Z,39.82
2023-09-08T12:36:17.719Z,39.10
2023-09-08T12:38:50.420Z,39.48
2023-09-08T12:41:18.327Z,39.96
2023-09-08T12:43:46.893Z,39.75
2023-09-08T12:46:14.796Z,39.18
2023-09-08T12:48:42.486Z,38.99
2023-09-08T12:51:11.487Z,38.49
2023-09-08T12:53:39.162Z,37.76
2023-09-08T12:56:06.889Z,37.62
2023-09-08T12:58:35.103Z,37.35
2023-09-08T13:01:06.364Z,38.37
2023-09-08T13:03:34.302Z,37.54
2023-09-08T13:06:02.022Z,38.28
2023-09-08T13:08:31.082Z,38.19
2023-09-08T13:10:58.759Z,39.23
2023-09-08T13:13:26.458Z,37.82
2023-09-08T13:15:54.508Z,37.25
2023-09-08T13:18:22.215Z,36.31
2023-09-08T13:20:49.892Z,36.56
2023-09-08T13:23:17.791Z,36.76
2023-09-08T13:25:47.253Z,37.54
2023-09-08T13:28:15.915Z,37.19
2023-09-08T13:30:43.763Z,36.51
2023-09-08T13:33:11.483Z,36.96
2023-09-08T13:35:40.220Z,36.12
2023-09-08T13:38:07.952Z,34.76
2023-09-08T13:40:35.747Z,32.81
2023-09-08T13:43:04.918Z,34.22
2023-09-08T13:45:32.726Z,35.00
2023-09-08T13:48:00.885Z,34.89
2023-09-08T13:50:30.453Z,34.60
2023-09-08T13:52:59.450Z,34.86
2023-09-08T13:58:01.167Z,34.17
2023-09-08T14:00:32.263Z,35.02
2023-09-08T14:03:05.521Z,34.04
2023-09-08T14:05:36.596Z,33.41
2023-09-08T14:08:12.136Z,33.57
2023-09-08T14:10:52.962Z,34.06
2023-09-08T14:13:25.924Z,32.03
2023-09-08T14:15:55.585Z,32.05
2023-09-08T14:18:23.277Z,32.23
2023-09-08T14:20:50.958Z,32.74
2023-09-08T14:23:18.649Z,32.82
2023-09-08T14:25:46.318Z,32.90
2023-09-08T14:28:13.990Z,32.08
2023-09-08T14:30:41.873Z,32.85
2023-09-08T14:33:10.985Z,32.91
2023-09-08T14:35:44.467Z,32.18
2023-09-08T14:38:12.905Z,31.86
2023-09-08T14:40:40.616Z,32.04
2023-09-08T14:43:08.278Z,32.36
2023-09-08T14:45:36.185Z,32.14
2023-09-08T14:48:03.934Z,31.86
2023-09-08T14:50:33.665Z,31.29
2023-09-08T14:53:01.341Z,31.50
2023-09-08T14:55:28.998Z,31.68
2023-09-08T14:57:56.907Z,31.31
2023-09-08T15:00:24.662Z,31.97
2023-09-08T15:02:52.807Z,32.26
2023-09-08T15:05:20.483Z,32.79
2023-09-08T15:07:49.474Z,32.09
2023-09-08T15:10:17.404Z,32.22
2023-09-08T15:12:45.229Z,33.14
2023-09-08T15:15:12.967Z,33.37
2023-09-08T15:17:40.639Z,33.78
2023-09-08T15:20:10.372Z,33.53
2023-09-08T15:22:38.149Z,34.03
2023-09-08T15:25:07.975Z,33.72
2023-09-08T15:27:35.726Z,34.28
2023-09-08T15:30:03.712Z,34.54
2023-09-08T15:32:31.780Z,34.80
2023-09-08T15:34:59.496Z,35.02
2023-09-08T15:37:27.183Z,35.85
2023-09-08T15:39:55.199Z,35.99
2023-09-08T15:42:24.354Z,36.62
2023-09-08T15:44:52.066Z,36.87
2023-09-08T15:47:21.415Z,35.93
2023-09-08T15:49:49.164Z,36.33
2023-09-08T15:52:17.305Z,36.15
2023-09-08T15:54:45.374Z,36.34
2023-09-08T15:57:13.234Z,36.76
2023-09-08T15:59:42.309Z,37.52
2023-09-08T16:02:10.137Z,38.19
2023-09-08T16:04:38.128Z,37.99
2023-09-08T16:07:06.392Z,38.18
2023-09-08T16:09:34.046Z,37.79
2023-09-08T16:12:01.711Z,38.30
2023-09-08T16:14:29.970Z,38.85
2023-09-08T16:16:59.727Z,39.35
2023-09-08T16:19:27.754Z,39.60
2023-09-08T16:21:55.403Z,40.54
2023-09-08T16:24:23.060Z,41.03
2023-09-08T16:26:50.859Z,40.97
2023-09-08T16:29:18.601Z,40.97
2023-09-08T16:31:46.337Z,41.35
2023-09-08T16:34:15.762Z,42.23
2023-09-08T16:36:43.407Z,43.09
2023-09-08T16:39:11.046Z,43.50
2023-09-08T16:41:38.740Z,44.07
2023-09-08T16:44:06.783Z,44.18
2023-09-08T16:46:34.498Z,44.52
2023-09-08T16:49:02.185Z,44.93
2023-09-08T16:51:31.325Z,45.17
2023-09-08T16:54:00.784Z,45.93
2023-09-08T16:56:28.629Z,45.88
2023-09-08T16:58:56.730Z,46.38
2023-09-08T17:01:24.595Z,47.26
2023-09-08T17:03:52.424Z,47.39
2023-09-08T17:06:20.250Z,47.29
2023-09-08T17:08:49.266Z,48.42
2023-09-08T17:11:19.400Z,49.17
2023-09-08T17:13:47.088Z,49.42
2023-09-08T17:16:14.816Z,49.88
2023-09-08T17:18:42.632Z,50.42
2023-09-08T17:21:10.413Z,51.52
2023-09-08T17:23:38.379Z,52.50
2023-09-08T17:26:08.815Z,52.79
2023-09-08T17:28:36.470Z,53.60
2023-09-08T17:31:05.800Z,54.77
2023-09-08T17:33:34.105Z,55.12
2023-09-08T17:36:01.908Z,54.85
2023-09-08T17:38:29.958Z,55.31
2023-09-08T17:40:59.620Z,55.89
2023-09-08T17:43:30.361Z,56.81
2023-09-08T17:45:58.606Z,56.98
2023-09-08T17:48:27.851Z,57.65
2023-09-08T17:50:55.747Z,58.57
2023-09-08T17:53:23.456Z,59.06
2023-09-08T17:55:51.170Z,59.28
2023-09-08T17:58:19.753Z,60.15
2023-09-08T18:00:49.463Z,60.63
2023-09-08T18:03:19.251Z,60.26
2023-09-08T18:05:48.639Z,61.34
2023-09-08T18:08:16.996Z,62.05
2023-09-08T18:10:44.719Z,62.99
2023-09-08T18:13:12.593Z,63.59
2023-09-08T18:15:40.745Z,63.47
2023-09-08T18:18:09.826Z,62.99
2023-09-08T18:20:37.659Z,62.96
2023-09-08T18:23:05.607Z,62.98
2023-09-08T18:25:33.296Z,63.43
2023-09-08T18:28:01.035Z,63.88
2023-09-08T18:30:28.698Z,63.75
2023-09-08T18:32:56.346Z,64.29
2023-09-08T18:35:26.158Z,64.67
2023-09-08T18:37:54.684Z,65.20
2023-09-08T18:40:22.351Z,66.17
2023-09-08T18:42:50.086Z,66.49
2023-09-08T18:45:18.324Z,66.82
2023-09-08T18:47:46.076Z,66.79
2023-09-08T18:50:14.019Z,67.15
2023-09-08T18:52:43.509Z,67.76
2023-09-08T18:55:11.181Z,68.79
2023-09-08T18:57:38.815Z,69.75
2023-09-08T19:00:07.997Z,70.48
2023-09-08T19:02:35.965Z,71.07
2023-09-08T19:05:04.398Z,71.13
2023-09-08T19:07:32.098Z,71.41
2023-09-08T19:10:02.089Z,71.45
2023-09-08T19:12:29.750Z,71.81
2023-09-08T19:14:57.610Z,71.99
2023-09-08T19:17:25.302Z,71.54
2023-09-08T19:19:53.267Z,71.44
2023-09-08T19:22:21.014Z,71.53
2023-09-08T19:24:49.519Z,72.02
2023-09-08T19:27:18.542Z,72.38
2023-09-08T19:29:49.670Z,72.65
2023-09-08T19:32:17.443Z,72.81
2023-09-08T19:34:45.196Z,73.07
2023-09-08T19:37:12.971Z,73.49
2023-09-08T19:39:41.094Z,74.09
2023-09-08T19:42:08.752Z,74.00
2023-09-08T19:44:37.807Z,74.30
2023-09-08T19:47:05.908Z,75.07
2023-09-08T19:49:33.588Z,75.50
2023-09-08T19:52:01.281Z,76.94
2023-09-08T19:54:29.114Z,76.82
2023-09-08T19:56:56.747Z,77.03
2023-09-08T19:59:24.402Z,76.76
2023-09-08T20:01:53.435Z,77.32
2023-09-08T20:04:21.218Z,77.91
2023-09-08T20:06:49.285Z,78.11
2023-09-08T20:09:17.277Z,78.87
2023-09-08T20:11:45.365Z,78.95
2023-09-08T20:14:14.038Z,79.14
2023-09-08T20:16:41.729Z,79.95
2023-09-08T20:19:11.489Z,80.22
2023-09-08T20:21:39.169Z,80.39
2023-09-08T20:24:08.017Z,80.16
2023-09-08T20:26:35.750Z,80.51
2023-09-08T20:29:03.644Z,80.74
2023-09-08T20:31:32.095Z,81.16
2023-09-08T20:33:59.815Z,81.21
2023-09-08T20:36:29.292Z,81.59
2023-09-08T20:38:56.952Z,82.10
2023-09-08T20:41:25.070Z,82.20
2023-09-08T20:43:52.771Z,82.54
2023-09-08T20:46:20.449Z,82.95
2023-09-08T20:48:48.179Z,83.21
2023-09-08T20:51:21.527Z,82.53
2023-09-08T20:53:50.816Z,82.15
2023-09-08T20:56:18.545Z,82.52
2023-09-08T20:58:46.173Z,83.03
2023-09-08T21:01:13.884Z,83.66
2023-09-08T21:03:41.697Z,83.62
2023-09-08T21:06:11.402Z,84.26
2023-09-08T21:08:39.440Z,84.18
2023-09-08T21:11:08.654Z,84.28
2023-09-08T21:13:36.603Z,84.77
2023-09-08T21:16:04.554Z,84.99
2023-09-08T21:18:32.308Z,85.33
2023-09-08T21:21:00.481Z,85.79
2023-09-08T21:23:29.061Z,85.83
2023-09-08T21:25:56.777Z,86.38
2023-09-08T21:28:25.832Z,86.49
2023-09-08T21:30:53.484Z,86.97
2023-09-08T21:33:21.681Z,87.08
2023-09-08T21:35:49.487Z,87.31
2023-09-08T21:38:17.920Z,87.58
2023-09-08T21:40:45.589Z,87.79
2023-09-08T21:43:13.237Z,88.18
2023-09-08T21:45:42.279Z,88.66
2023-09-08T21:48:10.232Z,88.78
2023-09-08T21:50:38.098Z,88.88
2023-09-08T21:53:05.781Z,89.46
2023-09-08T21:55:33.485Z,89.85
2023-09-08T21:58:01.178Z,89.84
2023-09-08T22:00:32.615Z,90.22
2023-09-08T22:03:01.779Z,90.53
2023-09-08T22:05:29.698Z,90.56
2023-09-08T22:07:57.599Z,90.84
2023-09-08T22:10:25.352Z,90.59
2023-09-08T22:12:53.350Z,90.61
2023-09-08T22:15:21.363Z,91.19
2023-09-08T22:17:50.813Z,91.32
2023-09-08T22:20:20.163Z,91.69
2023-09-08T22:22:47.814Z,91.82
2023-09-08T22:25:15.793Z,91.97
2023-09-08T22:27:43.493Z,91.88
2023-09-08T22:30:12.231Z,92.26
2023-09-08T22:32:40.148Z,92.21
2023-09-08T22:35:08.814Z,92.39
2023-09-08T22:37:37.841Z,92.55
2023-09-08T22:40:09.852Z,92.50
2023-09-08T22:42:37.860Z,92.92
2023-09-08T22:45:06.382Z,93.08
2023-09-08T22:47:34.328Z,93.37
2023-09-08T22:50:11.661Z,93.72
2023-09-08T22:52:42.109Z,93.76
2023-09-08T22:55:24.088Z,93.77
2023-09-08T22:57:53.471Z,93.88
2023-09-08T23:00:21.226Z,94.25
2023-09-08T23:02:49.003Z,94.21
2023-09-08T23:05:16.962Z,94.52
2023-09-08T23:07:46.359Z,94.60
2023-09-08T23:10:14.274Z,94.60
2023-09-08T23:12:42.117Z,95.08
2023-09-08T23:15:11.242Z,95.36
2023-09-08T23:17:39.250Z,95.63
2023-09-08T23:20:09.161Z,95.68
2023-09-08T23:22:37.971Z,95.83
2023-09-08T23:25:07.765Z,95.95
2023-09-08T23:27:36.174Z,96.03
2023-09-08T23:30:04.701Z,96.02
2023-09-08T23:32:32.500Z,95.95
2023-09-08T23:35:01.568Z,95.88
2023-09-08T23:37:29.313Z,96.11
2023-09-08T23:39:57.000Z,96.42
2023-09-08T23:42:26.017Z,96.77
2023-09-08T23:44:53.785Z,96.95
2023-09-08T23:47:21.560Z,97.21
2023-09-08T23:49:49.602Z,97.47
2023-09-08T23:52:17.246Z,97.68
2023-09-08T23:54:44.877Z,97.70
2023-09-08T23:57:12.925Z,97.87
2023-09-08T23:59:41.983Z,98.40
